Main page
METAR-TAF:

METAR-TAF

Airports :

Albacete, Spain

Albacete Airport

latitude: 38-57N, longitude: 001-51W, elevation: 702 m

Current weather observation

The report was made 10 minutes ago, at 02:00 UTC
Wind 6 kt from the East
Temperature 14°C
Humidity 63%
Pressure 1018 hPa
Visibility 10 km or more
no clouds below 1500 m and no cumulonimbus

METAR: LEAB 290200Z 09006KT CAVOK 14/07 Q1018 NOSIG

Time: 04:10 (02:10 UTC)

Forecast

The report was made 3 hours and 10 minutes ago, at 23:00 UTC
Forecast valid from 29 at 00 UTC to 29 at 09 UTC
Wind 5 kt from the South/Southeast
Visibility 10 km or more
no clouds below 1500 m and no cumulonimbus

TAF: LEAB 282300Z 2900/2909 15005KT CAVOK

Weather observations and forecasts of more than 4000 airports (METAR and TAF reports).

The available stations are represented by yellow and red dots on the map.

Hover mouse over dot to see the name of the station.

Then click to see weather observations and forecasts.

To change the map : click on the green buttons with a black cross to zoom in, on the green button with a dash to zoom out, or on the green arrows for adjacent maps.


METAR-TAF: